PWSweather.com
Personal Weather Stations
Station Observations

PoschiavoCH

Lat: 46.31962499999999, Lon: 10.066551000000004

Elevation: 3517

Station Type: WH 1080

http://www.meteoposchiavo.com

High Low Average
Temperature 79.0°F26.1°C 54.0°F12.2°C 60.7°F15.9°C
Dew Point 63.0°F17.2°C 49.4°F9.7°C 56.5°F13.6°C
Winds 3.5 mph 5.6 kmh Calm Calm Calm ESECalm ESE
Wind Gusts 8.1 mph13.0 kmh -- --
Humidity 99% 38% 88%
Pressure 26.71 in904.5 mb 26.41 in894.3 mb -
Precipitation 0.70 in17.8 mm - -
Hour Temp Dew Point Humidity Winds Wind Gusts Pressure Precip Precip Rate Daily Precip Total
12:00 AM 54.0°F12.2°C 53.7°F12.1°C 99% Calm Calm -- 26.69 in903.8 mb - 0.02 in0.5 mm 0.02 in0.5 mm
12:10 AM 54.0°F12.2°C 53.7°F12.1°C 99% Calm Calm -- 26.69 in903.8 mb - 0.02 in0.5 mm 0.02 in0.5 mm
12:15 AM 54.0°F12.2°C 53.7°F12.1°C 99% Calm Calm -- 26.68 in903.5 mb - 0.02 in0.5 mm 0.02 in0.5 mm
12:20 AM 55.0°F12.8°C 54.7°F12.6°C 99% Calm Calm -- 26.69 in903.8 mb - 0.02 in0.5 mm 0.02 in0.5 mm
12:25 AM 54.0°F12.2°C 53.7°F12.1°C 99% Calm Calm -- 26.68 in903.5 mb - 0.02 in0.5 mm 0.02 in0.5 mm
12:30 AM 54.0°F12.2°C 53.7°F12.1°C 99% Calm Calm -- 26.67 in903.2 mb - 0.02 in0.5 mm 0.02 in0.5 mm
12:35 AM 54.0°F12.2°C 53.7°F12.1°C 99% Calm Calm -- 26.67 in903.2 mb - 0.02 in0.5 mm 0.02 in0.5 mm
12:40 AM 54.0°F12.2°C 53.7°F12.1°C 99% Calm Calm -- 26.67 in903.2 mb - 0.00 in0.0 mm 0.02 in0.5 mm
12:45 AM 54.0°F12.2°C 53.7°F12.1°C 99% Calm Calm -- 26.67 in903.2 mb - 0.00 in0.0 mm 0.02 in0.5 mm
12:50 AM 54.0°F12.2°C 53.7°F12.1°C 99% Calm Calm -- 26.67 in903.2 mb - 0.00 in0.0 mm 0.02 in0.5 mm
12:55 AM 54.0°F12.2°C 53.7°F12.1°C 99% Calm Calm -- 26.67 in903.2 mb - 0.00 in0.0 mm 0.02 in0.5 mm
01:00 AM 54.0°F12.2°C 53.7°F12.1°C 99% Calm Calm -- 26.66 in902.8 mb - 0.00 in0.0 mm 0.02 in0.5 mm
01:10 AM 54.0°F12.2°C 53.7°F12.1°C 99% Calm Calm -- 26.67 in903.2 mb - 0.00 in0.0 mm 0.02 in0.5 mm
01:15 AM 54.0°F12.2°C 53.7°F12.1°C 99% Calm Calm -- 26.66 in902.8 mb - 0.00 in0.0 mm 0.02 in0.5 mm
01:20 AM 54.0°F12.2°C 53.7°F12.1°C 99% Calm Calm -- 26.67 in903.2 mb - 0.00 in0.0 mm 0.02 in0.5 mm
01:25 AM 54.0°F12.2°C 53.7°F12.1°C 99% Calm Calm -- 26.67 in903.2 mb - 0.00 in0.0 mm 0.02 in0.5 mm
01:30 AM 54.0°F12.2°C 53.7°F12.1°C 99% Calm Calm -- 26.66 in902.8 mb - 0.00 in0.0 mm 0.02 in0.5 mm
01:35 AM 54.0°F12.2°C 53.7°F12.1°C 99% Calm Calm -- 26.66 in902.8 mb - 0.00 in0.0 mm 0.02 in0.5 mm
01:40 AM 54.0°F12.2°C 53.7°F12.1°C 99% Calm Calm -- 26.66 in902.8 mb - 0.00 in0.0 mm 0.02 in0.5 mm
01:45 AM 54.0°F12.2°C 53.7°F12.1°C 99% Calm Calm -- 26.66 in902.8 mb - 0.00 in0.0 mm 0.02 in0.5 mm
01:50 AM 54.0°F12.2°C 53.7°F12.1°C 99% Calm Calm -- 26.66 in902.8 mb - 0.00 in0.0 mm 0.02 in0.5 mm
01:55 AM 54.0°F12.2°C 53.7°F12.1°C 99% Calm Calm -- 26.65 in902.5 mb - 0.00 in0.0 mm 0.02 in0.5 mm
02:00 AM 55.0°F12.8°C 54.7°F12.6°C 99% Calm Calm -- 26.65 in902.5 mb - 0.00 in0.0 mm 0.02 in0.5 mm
02:10 AM 55.0°F12.8°C 54.7°F12.6°C 99% Calm Calm -- 26.66 in902.8 mb - 0.00 in0.0 mm 0.02 in0.5 mm
02:15 AM 54.0°F12.2°C 53.7°F12.1°C 99% Calm Calm -- 26.65 in902.5 mb - 0.00 in0.0 mm 0.02 in0.5 mm
02:20 AM 54.0°F12.2°C 53.7°F12.1°C 99% Calm Calm -- 26.65 in902.5 mb - 0.00 in0.0 mm 0.02 in0.5 mm
02:25 AM 55.0°F12.8°C 54.7°F12.6°C 99% Calm Calm -- 26.66 in902.8 mb - 0.00 in0.0 mm 0.02 in0.5 mm
02:30 AM 55.0°F12.8°C 54.7°F12.6°C 99% Calm Calm -- 26.65 in902.5 mb - 0.00 in0.0 mm 0.02 in0.5 mm
02:35 AM 55.0°F12.8°C 54.7°F12.6°C 99% Calm Calm -- 26.65 in902.5 mb - 0.00 in0.0 mm 0.02 in0.5 mm
02:40 AM 55.0°F12.8°C 54.7°F12.6°C 99% Calm Calm -- 26.64 in902.1 mb - 0.00 in0.0 mm 0.02 in0.5 mm
02:45 AM 55.0°F12.8°C 54.7°F12.6°C 99% Calm Calm -- 26.64 in902.1 mb - 0.00 in0.0 mm 0.02 in0.5 mm
02:50 AM 55.0°F12.8°C 54.7°F12.6°C 99% Calm Calm -- 26.64 in902.1 mb - 0.00 in0.0 mm 0.02 in0.5 mm
02:55 AM 55.0°F12.8°C 54.7°F12.6°C 99% Calm Calm -- 26.64 in902.1 mb - 0.00 in0.0 mm 0.02 in0.5 mm
03:00 AM 55.0°F12.8°C 54.7°F12.6°C 99% Calm Calm -- 26.64 in902.1 mb - 0.00 in0.0 mm 0.02 in0.5 mm
03:10 AM 55.0°F12.8°C 54.7°F12.6°C 99% Calm Calm -- 26.64 in902.1 mb - 0.00 in0.0 mm 0.02 in0.5 mm
03:15 AM 55.0°F12.8°C 54.7°F12.6°C 99% Calm Calm -- 26.63 in901.8 mb - 0.00 in0.0 mm 0.02 in0.5 mm
03:20 AM 55.0°F12.8°C 54.7°F12.6°C 99% Calm Calm -- 26.62 in901.5 mb - 0.00 in0.0 mm 0.02 in0.5 mm
03:25 AM 55.0°F12.8°C 54.7°F12.6°C 99% Calm Calm -- 26.63 in901.8 mb - 0.00 in0.0 mm 0.02 in0.5 mm
03:30 AM 55.0°F12.8°C 54.7°F12.6°C 99% Calm Calm -- 26.63 in901.8 mb - 0.00 in0.0 mm 0.02 in0.5 mm
03:35 AM 55.0°F12.8°C 54.7°F12.6°C 99% Calm Calm -- 26.63 in901.8 mb - 0.00 in0.0 mm 0.02 in0.5 mm
03:40 AM 55.0°F12.8°C 54.7°F12.6°C 99% Calm Calm -- 26.63 in901.8 mb - 0.00 in0.0 mm 0.02 in0.5 mm
03:45 AM 55.0°F12.8°C 54.7°F12.6°C 99% Calm Calm -- 26.62 in901.5 mb - 0.00 in0.0 mm 0.02 in0.5 mm
03:50 AM 55.0°F12.8°C 54.7°F12.6°C 99% Calm Calm -- 26.61 in901.1 mb - 0.00 in0.0 mm 0.02 in0.5 mm
03:55 AM 55.0°F12.8°C 54.7°F12.6°C 99% Calm Calm -- 26.71 in904.5 mb - 0.00 in0.0 mm 0.02 in0.5 mm
04:00 AM 73.0°F22.8°C 56.9°F13.8°C 57% Calm Calm -- 26.69 in903.8 mb - 0.00 in0.0 mm 0.02 in0.5 mm
04:10 AM 55.0°F12.8°C 54.7°F12.6°C 99% Calm Calm -- 26.62 in901.5 mb - 0.00 in0.0 mm 0.02 in0.5 mm
04:15 AM 55.0°F12.8°C 54.7°F12.6°C 99% Calm Calm -- 26.62 in901.5 mb - 0.00 in0.0 mm 0.02 in0.5 mm
04:20 AM 55.0°F12.8°C 54.7°F12.6°C 99% Calm Calm -- 26.62 in901.5 mb - 0.00 in0.0 mm 0.02 in0.5 mm
04:25 AM 55.0°F12.8°C 54.7°F12.6°C 99% Calm Calm -- 26.62 in901.5 mb - 0.00 in0.0 mm 0.02 in0.5 mm
04:30 AM 55.0°F12.8°C 54.7°F12.6°C 99% Calm Calm -- 26.62 in901.5 mb - 0.00 in0.0 mm 0.02 in0.5 mm
04:35 AM 55.0°F12.8°C 54.7°F12.6°C 99% Calm Calm -- 26.62 in901.5 mb - 0.00 in0.0 mm 0.02 in0.5 mm
04:40 AM 55.0°F12.8°C 54.7°F12.6°C 99% Calm Calm -- 26.62 in901.5 mb - 0.00 in0.0 mm 0.02 in0.5 mm
04:45 AM 55.0°F12.8°C 54.7°F12.6°C 99% Calm Calm -- 26.62 in901.5 mb - 0.00 in0.0 mm 0.02 in0.5 mm
04:50 AM 55.0°F12.8°C 54.7°F12.6°C 99% Calm Calm -- 26.62 in901.5 mb - 0.00 in0.0 mm 0.02 in0.5 mm
04:55 AM 55.0°F12.8°C 54.7°F12.6°C 99% Calm Calm -- 26.62 in901.5 mb - 0.00 in0.0 mm 0.02 in0.5 mm
05:00 AM 55.0°F12.8°C 54.7°F12.6°C 99% Calm Calm -- 26.61 in901.1 mb - 0.00 in0.0 mm 0.02 in0.5 mm
05:10 AM 55.0°F12.8°C 54.7°F12.6°C 99% Calm Calm -- 26.62 in901.5 mb - 0.00 in0.0 mm 0.02 in0.5 mm
05:15 AM 55.0°F12.8°C 54.7°F12.6°C 99% Calm Calm -- 26.62 in901.5 mb - 0.00 in0.0 mm 0.02 in0.5 mm
05:20 AM 55.0°F12.8°C 54.7°F12.6°C 99% Calm Calm -- 26.61 in901.1 mb - 0.00 in0.0 mm 0.02 in0.5 mm
05:25 AM 55.0°F12.8°C 54.7°F12.6°C 99% Calm Calm -- 26.62 in901.5 mb - 0.00 in0.0 mm 0.02 in0.5 mm
05:30 AM 55.0°F12.8°C 54.7°F12.6°C 99% Calm Calm -- 26.61 in901.1 mb - 0.00 in0.0 mm 0.02 in0.5 mm
05:35 AM 55.0°F12.8°C 54.7°F12.6°C 99% Calm Calm -- 26.61 in901.1 mb - 0.00 in0.0 mm 0.02 in0.5 mm
05:40 AM 55.0°F12.8°C 54.7°F12.6°C 99% Calm Calm -- 26.61 in901.1 mb - 0.00 in0.0 mm 0.02 in0.5 mm
05:45 AM 55.0°F12.8°C 54.7°F12.6°C 99% Calm Calm -- 26.61 in901.1 mb - 0.00 in0.0 mm 0.02 in0.5 mm
05:50 AM 56.0°F13.3°C 55.7°F13.2°C 99% Calm Calm -- 26.61 in901.1 mb - 0.00 in0.0 mm 0.02 in0.5 mm
05:55 AM 56.0°F13.3°C 55.7°F13.2°C 99% Calm Calm -- 26.62 in901.5 mb - 0.00 in0.0 mm 0.02 in0.5 mm
06:00 AM 56.0°F13.3°C 55.7°F13.2°C 99% Calm Calm -- 26.61 in901.1 mb - 0.00 in0.0 mm 0.02 in0.5 mm
06:10 AM 56.0°F13.3°C 55.7°F13.2°C 99% Calm Calm -- 26.62 in901.5 mb - 0.00 in0.0 mm 0.02 in0.5 mm
06:15 AM 56.0°F13.3°C 55.7°F13.2°C 99% Calm Calm -- 26.61 in901.1 mb - 0.00 in0.0 mm 0.02 in0.5 mm
06:20 AM 56.0°F13.3°C 55.7°F13.2°C 99% Calm Calm -- 26.61 in901.1 mb - 0.00 in0.0 mm 0.02 in0.5 mm
06:25 AM 56.2°F13.4°C 55.9°F13.3°C 99% Calm Calm -- 26.61 in901.1 mb - 0.00 in0.0 mm 0.02 in0.5 mm
06:30 AM 57.0°F13.9°C 56.7°F13.7°C 99% Calm Calm -- 26.61 in901.1 mb - 0.00 in0.0 mm 0.02 in0.5 mm
06:35 AM 57.0°F13.9°C 56.7°F13.7°C 99% Calm Calm -- 26.61 in901.1 mb - 0.00 in0.0 mm 0.02 in0.5 mm
06:40 AM 57.0°F13.9°C 56.7°F13.7°C 99% Calm Calm -- 26.61 in901.1 mb - 0.00 in0.0 mm 0.02 in0.5 mm
06:45 AM 57.0°F13.9°C 56.7°F13.7°C 99% Calm Calm -- 26.60 in900.8 mb - 0.00 in0.0 mm 0.02 in0.5 mm
06:50 AM 57.0°F13.9°C 56.7°F13.7°C 99% Calm Calm -- 26.60 in900.8 mb - 0.00 in0.0 mm 0.02 in0.5 mm
06:55 AM 58.0°F14.4°C 57.7°F14.3°C 99% Calm Calm -- 26.61 in901.1 mb - 0.00 in0.0 mm 0.02 in0.5 mm
07:00 AM 58.0°F14.4°C 57.7°F14.3°C 99% Calm Calm -- 26.61 in901.1 mb - 0.00 in0.0 mm 0.02 in0.5 mm
07:10 AM 58.0°F14.4°C 57.7°F14.3°C 99% Calm Calm -- 26.61 in901.1 mb - 0.00 in0.0 mm 0.02 in0.5 mm
07:15 AM 58.0°F14.4°C 57.7°F14.3°C 99% Calm Calm -- 26.61 in901.1 mb - 0.00 in0.0 mm 0.02 in0.5 mm
07:20 AM 58.0°F14.4°C 57.7°F14.3°C 99% Calm Calm -- 26.61 in901.1 mb - 0.00 in0.0 mm 0.02 in0.5 mm
07:25 AM 58.0°F14.4°C 57.7°F14.3°C 99% Calm Calm -- 26.61 in901.1 mb - 0.00 in0.0 mm 0.02 in0.5 mm
07:30 AM 59.0°F15.0°C 58.7°F14.8°C 99% Calm Calm -- 26.60 in900.8 mb - 0.00 in0.0 mm 0.02 in0.5 mm
07:35 AM 59.0°F15.0°C 58.7°F14.8°C 99% Calm Calm -- 26.60 in900.8 mb - 0.00 in0.0 mm 0.02 in0.5 mm
07:40 AM 59.0°F15.0°C 58.7°F14.8°C 99% Calm Calm -- 26.60 in900.8 mb - 0.00 in0.0 mm 0.02 in0.5 mm
07:45 AM 59.0°F15.0°C 58.7°F14.8°C 99% Calm Calm -- 26.61 in901.1 mb - 0.00 in0.0 mm 0.02 in0.5 mm
07:50 AM 60.0°F15.6°C 59.7°F15.4°C 99% Calm Calm -- 26.60 in900.8 mb - 0.00 in0.0 mm 0.02 in0.5 mm
07:55 AM 60.9°F16.1°C 60.6°F15.9°C 99% Calm Calm -- 26.60 in900.8 mb - 0.00 in0.0 mm 0.02 in0.5 mm
08:00 AM 61.0°F16.1°C 60.7°F15.9°C 99% Calm Calm -- 26.60 in900.8 mb - 0.00 in0.0 mm 0.02 in0.5 mm
08:10 AM 63.0°F17.2°C 61.5°F16.4°C 95% Calm Calm -- 26.59 in900.4 mb - 0.00 in0.0 mm 0.02 in0.5 mm
08:15 AM 63.0°F17.2°C 60.3°F15.7°C 91% Calm Calm -- 26.59 in900.4 mb - 0.00 in0.0 mm 0.02 in0.5 mm
08:20 AM 63.0°F17.2°C 60.0°F15.6°C 90% Calm Calm -- 26.59 in900.4 mb - 0.00 in0.0 mm 0.02 in0.5 mm
08:25 AM 63.0°F17.2°C 59.7°F15.4°C 89% Calm Calm -- 26.59 in900.4 mb - 0.00 in0.0 mm 0.02 in0.5 mm
08:30 AM 63.0°F17.2°C 58.1°F14.5°C 84% Calm Calm -- 26.59 in900.4 mb - 0.00 in0.0 mm 0.02 in0.5 mm
08:35 AM 63.0°F17.2°C 57.4°F14.1°C 82% 1.2 mph SSW1.9 kmh SSW 1.2 mph1.9 kmh 26.58 in900.1 mb - 0.00 in0.0 mm 0.02 in0.5 mm
08:40 AM 63.0°F17.2°C 59.1°F15.1°C 87% Calm Calm -- 26.59 in900.4 mb - 0.00 in0.0 mm 0.02 in0.5 mm
08:45 AM 63.0°F17.2°C 59.1°F15.1°C 87% Calm Calm 1.2 mph1.9 kmh 26.59 in900.4 mb - 0.00 in0.0 mm 0.02 in0.5 mm
08:50 AM 63.0°F17.2°C 58.4°F14.7°C 85% 1.2 mph N1.9 kmh N 1.2 mph1.9 kmh 26.59 in900.4 mb - 0.00 in0.0 mm 0.02 in0.5 mm
08:55 AM 63.0°F17.2°C 60.0°F15.6°C 90% Calm Calm -- 26.58 in900.1 mb - 0.00 in0.0 mm 0.02 in0.5 mm
09:00 AM 63.0°F17.2°C 58.7°F14.8°C 86% Calm Calm -- 26.59 in900.4 mb - 0.00 in0.0 mm 0.02 in0.5 mm
09:10 AM 63.0°F17.2°C 59.1°F15.1°C 87% Calm Calm -- 26.59 in900.4 mb - 0.00 in0.0 mm 0.02 in0.5 mm
09:15 AM 64.0°F17.8°C 57.7°F14.3°C 80% 1.2 mph WSW1.9 kmh WSW 1.2 mph1.9 kmh 26.58 in900.1 mb - 0.00 in0.0 mm 0.02 in0.5 mm
09:20 AM 64.0°F17.8°C 60.7°F15.9°C 89% Calm Calm -- 26.59 in900.4 mb - 0.00 in0.0 mm 0.02 in0.5 mm
09:25 AM 64.0°F17.8°C 60.4°F15.8°C 88% Calm Calm -- 26.59 in900.4 mb - 0.00 in0.0 mm 0.02 in0.5 mm
09:30 AM 64.0°F17.8°C 60.4°F15.8°C 88% Calm Calm -- 26.59 in900.4 mb - 0.00 in0.0 mm 0.02 in0.5 mm
09:35 AM 64.0°F17.8°C 60.4°F15.8°C 88% Calm Calm -- 26.59 in900.4 mb - 0.00 in0.0 mm 0.02 in0.5 mm
09:40 AM 67.0°F19.4°C 61.7°F16.5°C 83% Calm Calm -- 26.58 in900.1 mb - 0.00 in0.0 mm 0.02 in0.5 mm
09:45 AM 68.0°F20.0°C 63.0°F17.2°C 84% Calm Calm -- 26.57 in899.8 mb - 0.00 in0.0 mm 0.02 in0.5 mm
09:50 AM 67.0°F19.4°C 60.6°F15.9°C 80% Calm Calm -- 26.58 in900.1 mb - 0.00 in0.0 mm 0.02 in0.5 mm
09:55 AM 67.0°F19.4°C 61.3°F16.3°C 82% Calm Calm -- 26.57 in899.8 mb - 0.00 in0.0 mm 0.02 in0.5 mm
10:00 AM 67.0°F19.4°C 62.3°F16.8°C 85% Calm Calm -- 26.57 in899.8 mb - 0.00 in0.0 mm 0.02 in0.5 mm
10:10 AM 67.0°F19.4°C 62.7°F17.1°C 86% Calm Calm -- 26.56 in899.4 mb - 0.00 in0.0 mm 0.02 in0.5 mm
10:15 AM 67.0°F19.4°C 59.5°F15.3°C 77% Calm Calm 1.2 mph1.9 kmh 26.56 in899.4 mb - 0.00 in0.0 mm 0.02 in0.5 mm
10:20 AM 67.5°F19.7°C 60.0°F15.6°C 77% Calm Calm 1.2 mph1.9 kmh 26.56 in899.4 mb - 0.00 in0.0 mm 0.02 in0.5 mm
10:25 AM 69.0°F20.6°C 61.9°F16.6°C 78% Calm Calm -- 26.56 in899.4 mb - 0.00 in0.0 mm 0.02 in0.5 mm
10:30 AM 70.0°F21.1°C 62.8°F17.1°C 78% Calm Calm -- 26.56 in899.4 mb - 0.00 in0.0 mm 0.02 in0.5 mm
10:35 AM 70.0°F21.1°C 60.6°F15.9°C 72% Calm Calm -- 26.57 in899.8 mb - 0.00 in0.0 mm 0.02 in0.5 mm
10:40 AM 69.0°F20.6°C 60.7°F15.9°C 75% 1.2 mph WSW1.9 kmh WSW 2.3 mph3.7 kmh 26.56 in899.4 mb - 0.00 in0.0 mm 0.02 in0.5 mm
10:45 AM 68.9°F20.5°C 60.7°F15.9°C 75% 1.2 mph WSW1.9 kmh WSW 2.3 mph3.7 kmh 26.56 in899.4 mb - 0.00 in0.0 mm 0.02 in0.5 mm
10:50 AM 68.0°F20.0°C 60.9°F16.1°C 78% Calm Calm -- 26.56 in899.4 mb - 0.00 in0.0 mm 0.02 in0.5 mm
10:55 AM 68.0°F20.0°C 59.8°F15.4°C 75% Calm Calm -- 26.57 in899.8 mb - 0.00 in0.0 mm 0.02 in0.5 mm
11:00 AM 70.0°F21.1°C 61.3°F16.3°C 74% Calm Calm -- 26.55 in899.1 mb - 0.00 in0.0 mm 0.02 in0.5 mm
11:10 AM 74.1°F23.4°C 61.1°F16.2°C 64% Calm Calm -- 26.55 in899.1 mb - 0.00 in0.0 mm 0.02 in0.5 mm
11:15 AM 75.0°F23.9°C 62.0°F16.7°C 64% Calm Calm -- 26.54 in898.7 mb - 0.00 in0.0 mm 0.02 in0.5 mm
11:20 AM 76.0°F24.4°C 60.6°F15.9°C 59% Calm Calm -- 26.54 in898.7 mb - 0.00 in0.0 mm 0.02 in0.5 mm
11:25 AM 78.0°F25.6°C 61.0°F16.1°C 56% Calm Calm -- 26.53 in898.4 mb - 0.00 in0.0 mm 0.02 in0.5 mm
11:30 AM 79.0°F26.1°C 59.9°F15.5°C 52% Calm Calm -- 26.53 in898.4 mb - 0.00 in0.0 mm 0.02 in0.5 mm
11:35 AM 79.0°F26.1°C 59.9°F15.5°C 52% Calm Calm 1.2 mph1.9 kmh 26.53 in898.4 mb - 0.00 in0.0 mm 0.02 in0.5 mm
11:40 AM 79.0°F26.1°C 61.5°F16.4°C 55% 1.2 mph SE1.9 kmh SE 1.2 mph1.9 kmh 26.52 in898.1 mb - 0.00 in0.0 mm 0.02 in0.5 mm
11:45 AM 79.0°F26.1°C 59.3°F15.2°C 51% Calm Calm -- 26.52 in898.1 mb - 0.00 in0.0 mm 0.02 in0.5 mm
11:50 AM 79.0°F26.1°C 56.5°F13.6°C 46% 3.5 mph NW5.6 kmh NW 5.8 mph9.3 kmh 26.52 in898.1 mb - 0.00 in0.0 mm 0.02 in0.5 mm
11:55 AM 78.0°F25.6°C 57.3°F14.1°C 49% 3.5 mph WSW5.6 kmh WSW 8.1 mph13.0 kmh 26.51 in897.7 mb - 0.00 in0.0 mm 0.02 in0.5 mm
12:00 PM 78.0°F25.6°C 56.7°F13.7°C 48% 3.5 mph WSW5.6 kmh WSW 8.1 mph13.0 kmh 26.51 in897.7 mb - 0.00 in0.0 mm 0.02 in0.5 mm
12:10 PM 79.0°F26.1°C 51.2°F10.7°C 38% 3.5 mph NW5.6 kmh NW 6.9 mph11.1 kmh 26.51 in897.7 mb - 0.00 in0.0 mm 0.02 in0.5 mm
12:15 PM 76.0°F24.4°C 53.1°F11.7°C 45% 2.3 mph WNW3.7 kmh WNW 3.5 mph5.6 kmh 26.51 in897.7 mb - 0.00 in0.0 mm 0.02 in0.5 mm
12:20 PM 75.0°F23.9°C 51.0°F10.6°C 43% Calm Calm -- 26.51 in897.7 mb - 0.00 in0.0 mm 0.02 in0.5 mm
12:25 PM 75.0°F23.9°C 51.6°F10.9°C 44% Calm Calm 2.3 mph3.7 kmh 26.51 in897.7 mb - 0.00 in0.0 mm 0.02 in0.5 mm
12:30 PM 75.0°F23.9°C 54.5°F12.5°C 49% 2.3 mph W3.7 kmh W 2.3 mph3.7 kmh 26.51 in897.7 mb - 0.00 in0.0 mm 0.02 in0.5 mm
12:35 PM 74.0°F23.3°C 54.7°F12.6°C 51% 2.3 mph W3.7 kmh W 2.3 mph3.7 kmh 26.50 in897.4 mb - 0.00 in0.0 mm 0.02 in0.5 mm
12:40 PM 76.0°F24.4°C 56.0°F13.3°C 50% 2.3 mph W3.7 kmh W 2.3 mph3.7 kmh 26.50 in897.4 mb - 0.00 in0.0 mm 0.02 in0.5 mm
12:45 PM 77.0°F25.0°C 53.4°F11.9°C 44% 2.3 mph WSW3.7 kmh WSW 3.5 mph5.6 kmh 26.50 in897.4 mb - 0.00 in0.0 mm 0.02 in0.5 mm
12:50 PM 77.0°F25.0°C 53.4°F11.9°C 44% 2.3 mph WSW3.7 kmh WSW 3.5 mph5.6 kmh 26.50 in897.4 mb - 0.00 in0.0 mm 0.02 in0.5 mm
12:55 PM 77.0°F25.0°C 53.4°F11.9°C 44% 2.3 mph WSW3.7 kmh WSW 3.5 mph5.6 kmh 26.50 in897.4 mb - 0.00 in0.0 mm 0.02 in0.5 mm
01:00 PM 78.0°F25.6°C 50.3°F10.2°C 38% 2.3 mph NNE3.7 kmh NNE 3.5 mph5.6 kmh 26.49 in897.1 mb - 0.00 in0.0 mm 0.02 in0.5 mm
01:10 PM 76.0°F24.4°C 56.0°F13.3°C 50% 2.3 mph W3.7 kmh W 2.3 mph3.7 kmh 26.50 in897.4 mb - 0.00 in0.0 mm 0.02 in0.5 mm
01:15 PM 76.0°F24.4°C 56.0°F13.3°C 50% 2.3 mph W3.7 kmh W 3.5 mph5.6 kmh 26.50 in897.4 mb - 0.00 in0.0 mm 0.02 in0.5 mm
01:20 PM 74.0°F23.3°C 49.4°F9.7°C 42% 2.3 mph NW3.7 kmh NW 3.5 mph5.6 kmh 26.50 in897.4 mb - 0.00 in0.0 mm 0.02 in0.5 mm
01:25 PM 73.0°F22.8°C 51.6°F10.9°C 47% 1.2 mph ENE1.9 kmh ENE 1.2 mph1.9 kmh 26.51 in897.7 mb - 0.00 in0.0 mm 0.02 in0.5 mm
01:30 PM 71.0°F21.7°C 54.5°F12.5°C 56% 1.2 mph E1.9 kmh E 1.2 mph1.9 kmh 26.52 in898.1 mb - 0.00 in0.0 mm 0.02 in0.5 mm
01:35 PM 69.2°F20.7°C 56.9°F13.8°C 65% 3.5 mph E5.6 kmh E 3.5 mph5.6 kmh 26.53 in898.4 mb - 0.01 in0.3 mm 0.03 in0.8 mm
01:40 PM 69.0°F20.6°C 57.2°F14.0°C 66% 3.5 mph E5.6 kmh E 3.5 mph5.6 kmh 26.53 in898.4 mb - 0.01 in0.3 mm 0.03 in0.8 mm
01:45 PM 63.0°F17.2°C 55.7°F13.2°C 77% 3.5 mph N5.6 kmh N 5.8 mph9.3 kmh 26.54 in898.7 mb - 0.03 in0.8 mm 0.05 in1.3 mm
01:50 PM 63.0°F17.2°C 57.1°F13.9°C 81% 1.2 mph N1.9 kmh N 2.3 mph3.7 kmh 26.54 in898.7 mb - 0.03 in0.8 mm 0.05 in1.3 mm
01:55 PM 64.0°F17.8°C 55.9°F13.3°C 75% 1.2 mph SW1.9 kmh SW 1.2 mph1.9 kmh 26.55 in899.1 mb - 0.03 in0.8 mm 0.05 in1.3 mm
02:00 PM 62.1°F16.7°C 55.8°F13.2°C 80% 1.2 mph N1.9 kmh N 1.2 mph1.9 kmh 26.55 in899.1 mb - 0.03 in0.8 mm 0.05 in1.3 mm
02:10 PM 62.0°F16.7°C 55.1°F12.8°C 78% 2.3 mph SSE3.7 kmh SSE 3.5 mph5.6 kmh 26.56 in899.4 mb - 0.03 in0.8 mm 0.05 in1.3 mm
02:15 PM 63.0°F17.2°C 56.7°F13.7°C 80% Calm Calm -- 26.55 in899.1 mb - 0.04 in1.0 mm 0.06 in1.5 mm
02:20 PM 61.0°F16.1°C 57.1°F13.9°C 87% Calm Calm -- 26.57 in899.8 mb - 0.05 in1.3 mm 0.07 in1.8 mm
02:25 PM 60.0°F15.6°C 57.1°F13.9°C 90% Calm Calm -- 26.56 in899.4 mb - 0.05 in1.3 mm 0.07 in1.8 mm
02:30 PM 60.0°F15.6°C 57.1°F13.9°C 90% Calm Calm 1.2 mph1.9 kmh 26.56 in899.4 mb - 0.05 in1.3 mm 0.07 in1.8 mm
02:35 PM 60.0°F15.6°C 57.1°F13.9°C 90% Calm Calm 1.2 mph1.9 kmh 26.57 in899.8 mb - 0.04 in1.0 mm 0.07 in1.8 mm
02:40 PM 60.0°F15.6°C 57.7°F14.3°C 92% Calm Calm -- 26.58 in900.1 mb - 0.04 in1.0 mm 0.07 in1.8 mm
02:45 PM 59.0°F15.0°C 57.3°F14.1°C 94% Calm Calm -- 26.58 in900.1 mb - 0.04 in1.0 mm 0.09 in2.3 mm
02:50 PM 59.0°F15.0°C 57.3°F14.1°C 94% Calm Calm -- 26.58 in900.1 mb - 0.05 in1.3 mm 0.10 in2.5 mm
02:55 PM 59.0°F15.0°C 57.3°F14.1°C 94% Calm Calm -- 26.58 in900.1 mb - 0.05 in1.3 mm 0.10 in2.5 mm
03:00 PM 59.0°F15.0°C 57.9°F14.4°C 96% Calm Calm -- 26.58 in900.1 mb - 0.07 in1.8 mm 0.12 in3.0 mm
03:10 PM 59.0°F15.0°C 57.0°F13.9°C 93% Calm Calm -- 26.59 in900.4 mb - 0.08 in2.0 mm 0.13 in3.3 mm
03:15 PM 59.0°F15.0°C 57.3°F14.1°C 94% Calm Calm -- 26.58 in900.1 mb - 0.07 in1.8 mm 0.13 in3.3 mm
03:20 PM 59.0°F15.0°C 57.6°F14.2°C 95% Calm Calm -- 26.58 in900.1 mb - 0.06 in1.5 mm 0.13 in3.3 mm
03:25 PM 59.0°F15.0°C 57.6°F14.2°C 95% Calm Calm -- 26.59 in900.4 mb - 0.06 in1.5 mm 0.13 in3.3 mm
03:30 PM 59.0°F15.0°C 57.6°F14.2°C 95% Calm Calm -- 26.57 in899.8 mb - 0.06 in1.5 mm 0.13 in3.3 mm
03:35 PM 59.0°F15.0°C 57.9°F14.4°C 96% Calm Calm -- 26.57 in899.8 mb - 0.06 in1.5 mm 0.13 in3.3 mm
03:40 PM 59.0°F15.0°C 57.6°F14.2°C 95% Calm Calm -- 26.56 in899.4 mb - 0.06 in1.5 mm 0.13 in3.3 mm
03:45 PM 59.0°F15.0°C 57.6°F14.2°C 95% Calm Calm -- 26.55 in899.1 mb - 0.04 in1.0 mm 0.13 in3.3 mm
03:50 PM 60.0°F15.6°C 58.9°F14.9°C 96% Calm Calm -- 26.54 in898.7 mb - 0.03 in0.8 mm 0.13 in3.3 mm
03:55 PM 60.0°F15.6°C 58.3°F14.6°C 94% Calm Calm -- 26.55 in899.1 mb - 0.03 in0.8 mm 0.13 in3.3 mm
04:00 PM 60.0°F15.6°C 58.6°F14.8°C 95% Calm Calm -- 26.54 in898.7 mb - 0.01 in0.3 mm 0.13 in3.3 mm
04:10 PM 59.0°F15.0°C 57.3°F14.1°C 94% Calm Calm -- 26.58 in900.1 mb - 0.00 in0.0 mm 0.13 in3.3 mm
04:15 PM 59.0°F15.0°C 57.6°F14.2°C 95% Calm Calm -- 26.59 in900.4 mb - 0.03 in0.8 mm 0.16 in4.1 mm
04:20 PM 60.0°F15.6°C 58.6°F14.8°C 95% Calm Calm -- 26.54 in898.7 mb - 0.03 in0.8 mm 0.16 in4.1 mm
04:25 PM 60.0°F15.6°C 58.3°F14.6°C 94% Calm Calm -- 26.54 in898.7 mb - 0.03 in0.8 mm 0.16 in4.1 mm
04:30 PM 60.0°F15.6°C 58.3°F14.6°C 94% Calm Calm -- 26.53 in898.4 mb - 0.03 in0.8 mm 0.16 in4.1 mm
04:35 PM 60.0°F15.6°C 58.3°F14.6°C 94% Calm Calm -- 26.53 in898.4 mb - 0.03 in0.8 mm 0.16 in4.1 mm
04:40 PM 60.0°F15.6°C 58.6°F14.8°C 95% Calm Calm -- 26.53 in898.4 mb - 0.03 in0.8 mm 0.16 in4.1 mm
04:45 PM 61.0°F16.1°C 59.6°F15.3°C 95% Calm Calm -- 26.52 in898.1 mb - 0.03 in0.8 mm 0.16 in4.1 mm
04:50 PM 62.0°F16.7°C 60.3°F15.7°C 94% Calm Calm -- 26.53 in898.4 mb - 0.03 in0.8 mm 0.16 in4.1 mm
04:55 PM 62.0°F16.7°C 59.3°F15.2°C 91% Calm Calm -- 26.52 in898.1 mb - 0.03 in0.8 mm 0.16 in4.1 mm
05:00 PM 62.0°F16.7°C 59.6°F15.3°C 92% Calm Calm -- 26.52 in898.1 mb - 0.03 in0.8 mm 0.16 in4.1 mm
05:10 PM 61.0°F16.1°C 58.7°F14.8°C 92% Calm Calm -- 26.52 in898.1 mb - 0.03 in0.8 mm 0.16 in4.1 mm
05:15 PM 62.0°F16.7°C 60.0°F15.6°C 93% Calm Calm -- 26.51 in897.7 mb - 0.00 in0.0 mm 0.16 in4.1 mm
05:20 PM 61.0°F16.1°C 58.7°F14.8°C 92% Calm Calm -- 26.51 in897.7 mb - 0.00 in0.0 mm 0.16 in4.1 mm
05:25 PM 61.0°F16.1°C 59.0°F15.0°C 93% Calm Calm -- 26.51 in897.7 mb - 0.00 in0.0 mm 0.16 in4.1 mm
05:30 PM 61.0°F16.1°C 58.7°F14.8°C 92% Calm Calm -- 26.51 in897.7 mb - 0.00 in0.0 mm 0.16 in4.1 mm
05:35 PM 61.0°F16.1°C 58.0°F14.4°C 90% Calm Calm -- 26.50 in897.4 mb - 0.00 in0.0 mm 0.16 in4.1 mm
05:40 PM 61.0°F16.1°C 59.0°F15.0°C 93% Calm Calm -- 26.50 in897.4 mb - 0.00 in0.0 mm 0.16 in4.1 mm
05:45 PM 61.0°F16.1°C 59.3°F15.2°C 94% Calm Calm -- 26.50 in897.4 mb - 0.00 in0.0 mm 0.16 in4.1 mm
05:50 PM 61.0°F16.1°C 59.3°F15.2°C 94% Calm Calm -- 26.50 in897.4 mb - 0.00 in0.0 mm 0.16 in4.1 mm
05:55 PM 61.0°F16.1°C 59.3°F15.2°C 94% Calm Calm -- 26.50 in897.4 mb - 0.00 in0.0 mm 0.16 in4.1 mm
06:00 PM 61.0°F16.1°C 58.7°F14.8°C 92% Calm Calm -- 26.49 in897.1 mb - 0.00 in0.0 mm 0.16 in4.1 mm
06:10 PM 61.0°F16.1°C 59.0°F15.0°C 93% Calm Calm -- 26.49 in897.1 mb - 0.00 in0.0 mm 0.16 in4.1 mm
06:15 PM 61.0°F16.1°C 59.6°F15.3°C 95% Calm Calm -- 26.49 in897.1 mb - 0.00 in0.0 mm 0.16 in4.1 mm
06:20 PM 61.0°F16.1°C 59.6°F15.3°C 95% Calm Calm -- 26.49 in897.1 mb - 0.00 in0.0 mm 0.16 in4.1 mm
06:25 PM 61.0°F16.1°C 59.3°F15.2°C 94% Calm Calm -- 26.49 in897.1 mb - 0.00 in0.0 mm 0.16 in4.1 mm
06:30 PM 61.0°F16.1°C 59.3°F15.2°C 94% Calm Calm -- 26.49 in897.1 mb - 0.00 in0.0 mm 0.16 in4.1 mm
06:35 PM 60.0°F15.6°C 58.3°F14.6°C 94% Calm Calm -- 26.48 in896.7 mb - 0.00 in0.0 mm 0.16 in4.1 mm
06:40 PM 60.0°F15.6°C 58.3°F14.6°C 94% Calm Calm -- 26.48 in896.7 mb - 0.00 in0.0 mm 0.16 in4.1 mm
06:45 PM 60.0°F15.6°C 58.0°F14.4°C 93% Calm Calm 1.2 mph1.9 kmh 26.48 in896.7 mb - 0.00 in0.0 mm 0.16 in4.1 mm
06:50 PM 60.0°F15.6°C 57.7°F14.3°C 92% 1.2 mph E1.9 kmh E 1.2 mph1.9 kmh 26.47 in896.4 mb - 0.00 in0.0 mm 0.16 in4.1 mm
06:55 PM 60.0°F15.6°C 58.0°F14.4°C 93% Calm Calm -- 26.48 in896.7 mb - 0.00 in0.0 mm 0.16 in4.1 mm
07:00 PM 60.0°F15.6°C 57.7°F14.3°C 92% Calm Calm -- 26.47 in896.4 mb - 0.00 in0.0 mm 0.16 in4.1 mm
07:10 PM 74.0°F23.3°C 49.4°F9.7°C 42% 1.2 mph N1.9 kmh N 3.5 mph5.6 kmh 26.49 in897.1 mb - 0.11 in2.8 mm 0.27 in6.9 mm
07:15 PM 59.0°F15.0°C 56.7°F13.7°C 92% Calm Calm 1.2 mph1.9 kmh 26.48 in896.7 mb - 0.11 in2.8 mm 0.27 in6.9 mm
07:20 PM 59.0°F15.0°C 56.4°F13.6°C 91% Calm Calm -- 26.47 in896.4 mb - 0.11 in2.8 mm 0.27 in6.9 mm
07:25 PM 59.0°F15.0°C 57.0°F13.9°C 93% Calm Calm -- 26.47 in896.4 mb - 0.11 in2.8 mm 0.27 in6.9 mm
07:30 PM 59.0°F15.0°C 56.1°F13.4°C 90% Calm Calm 1.2 mph1.9 kmh 26.47 in896.4 mb - 0.11 in2.8 mm 0.27 in6.9 mm
07:35 PM 59.0°F15.0°C 56.4°F13.6°C 91% Calm Calm 1.2 mph1.9 kmh 26.47 in896.4 mb - 0.11 in2.8 mm 0.27 in6.9 mm
07:40 PM 59.0°F15.0°C 56.7°F13.7°C 92% Calm Calm -- 26.47 in896.4 mb - 0.11 in2.8 mm 0.27 in6.9 mm
07:45 PM 59.0°F15.0°C 56.4°F13.6°C 91% Calm Calm -- 26.47 in896.4 mb - 0.11 in2.8 mm 0.27 in6.9 mm
07:50 PM 59.0°F15.0°C 56.7°F13.7°C 92% Calm Calm -- 26.47 in896.4 mb - 0.11 in2.8 mm 0.27 in6.9 mm
07:55 PM 61.0°F16.1°C 58.7°F14.8°C 92% Calm Calm -- 26.49 in897.1 mb - 0.11 in2.8 mm 0.27 in6.9 mm
08:00 PM 59.9°F15.5°C 57.6°F14.2°C 92% Calm Calm -- 26.48 in896.7 mb - 0.11 in2.8 mm 0.27 in6.9 mm
08:10 PM 58.0°F14.4°C 55.4°F13.0°C 91% Calm Calm -- 26.46 in896.0 mb - 0.11 in2.8 mm 0.27 in6.9 mm
08:15 PM 58.0°F14.4°C 55.1°F12.8°C 90% Calm Calm -- 26.46 in896.0 mb - 0.00 in0.0 mm 0.27 in6.9 mm
08:20 PM 59.0°F15.0°C 56.4°F13.6°C 91% Calm Calm -- 26.47 in896.4 mb - 0.00 in0.0 mm 0.27 in6.9 mm
08:25 PM 57.9°F14.4°C 55.3°F12.9°C 91% Calm Calm -- 26.46 in896.0 mb - 0.00 in0.0 mm 0.27 in6.9 mm
08:30 PM 57.0°F13.9°C 54.4°F12.4°C 91% Calm Calm -- 26.45 in895.7 mb - 0.00 in0.0 mm 0.27 in6.9 mm
08:35 PM 57.0°F13.9°C 54.4°F12.4°C 91% Calm Calm -- 26.46 in896.0 mb - 0.00 in0.0 mm 0.27 in6.9 mm
08:40 PM 57.0°F13.9°C 53.8°F12.1°C 89% Calm Calm -- 26.45 in895.7 mb - 0.00 in0.0 mm 0.27 in6.9 mm
08:45 PM 57.0°F13.9°C 54.1°F12.3°C 90% Calm Calm -- 26.45 in895.7 mb - 0.00 in0.0 mm 0.27 in6.9 mm
08:50 PM 57.0°F13.9°C 54.4°F12.4°C 91% Calm Calm -- 26.44 in895.4 mb - 0.00 in0.0 mm 0.27 in6.9 mm
08:55 PM 56.4°F13.6°C 54.1°F12.3°C 92% Calm Calm -- 26.44 in895.4 mb - 0.00 in0.0 mm 0.27 in6.9 mm
09:00 PM 56.0°F13.3°C 53.7°F12.1°C 92% Calm Calm -- 26.44 in895.4 mb - 0.00 in0.0 mm 0.27 in6.9 mm
09:10 PM 60.0°F15.6°C 57.1°F13.9°C 90% Calm Calm -- 26.56 in899.4 mb - 0.00 in0.0 mm 0.27 in6.9 mm
09:15 PM 56.0°F13.3°C 53.4°F11.9°C 91% Calm Calm -- 26.44 in895.4 mb - 0.06 in1.5 mm 0.33 in8.4 mm
09:20 PM 56.0°F13.3°C 53.4°F11.9°C 91% Calm Calm -- 26.45 in895.7 mb - 0.06 in1.5 mm 0.33 in8.4 mm
09:25 PM 56.0°F13.3°C 53.1°F11.7°C 90% Calm Calm 1.2 mph1.9 kmh 26.45 in895.7 mb - 0.06 in1.5 mm 0.33 in8.4 mm
09:30 PM 56.0°F13.3°C 52.8°F11.6°C 89% Calm Calm 1.2 mph1.9 kmh 26.45 in895.7 mb - 0.06 in1.5 mm 0.33 in8.4 mm
09:35 PM 56.0°F13.3°C 52.5°F11.4°C 88% Calm Calm -- 26.44 in895.4 mb - 0.06 in1.5 mm 0.33 in8.4 mm
09:40 PM 54.0°F12.2°C 53.7°F12.1°C 99% Calm Calm -- 26.66 in902.8 mb - 0.32 in8.1 mm 0.59 in15.0 mm
09:45 PM 56.0°F13.3°C 53.1°F11.7°C 90% Calm Calm -- 26.44 in895.4 mb - 0.32 in8.1 mm 0.59 in15.0 mm
09:50 PM 54.0°F12.2°C 53.7°F12.1°C 99% Calm Calm -- 26.65 in902.5 mb - 0.32 in8.1 mm 0.59 in15.0 mm
09:55 PM 57.0°F13.9°C 54.1°F12.3°C 90% Calm Calm -- 26.44 in895.4 mb - 0.43 in10.9 mm 0.70 in17.8 mm
10:00 PM 56.1°F13.4°C 53.2°F11.8°C 90% Calm Calm -- 26.43 in895.0 mb - 0.43 in10.9 mm 0.70 in17.8 mm
10:10 PM 56.0°F13.3°C 53.4°F11.9°C 91% Calm Calm -- 26.43 in895.0 mb - 0.43 in10.9 mm 0.70 in17.8 mm
10:15 PM 56.0°F13.3°C 53.4°F11.9°C 91% Calm Calm -- 26.43 in895.0 mb - 0.37 in9.4 mm 0.70 in17.8 mm
10:20 PM 57.0°F13.9°C 54.1°F12.3°C 90% Calm Calm -- 26.42 in894.7 mb - 0.37 in9.4 mm 0.70 in17.8 mm
10:25 PM 57.0°F13.9°C 53.2°F11.8°C 87% Calm Calm -- 26.42 in894.7 mb - 0.37 in9.4 mm 0.70 in17.8 mm
10:30 PM 57.0°F13.9°C 53.8°F12.1°C 89% Calm Calm -- 26.42 in894.7 mb - 0.37 in9.4 mm 0.70 in17.8 mm
10:35 PM 57.0°F13.9°C 53.8°F12.1°C 89% Calm Calm -- 26.42 in894.7 mb - 0.37 in9.4 mm 0.70 in17.8 mm
10:40 PM 57.0°F13.9°C 53.8°F12.1°C 89% Calm Calm -- 26.42 in894.7 mb - 0.11 in2.8 mm 0.70 in17.8 mm
10:45 PM 57.0°F13.9°C 54.1°F12.3°C 90% Calm Calm -- 26.41 in894.3 mb - 0.11 in2.8 mm 0.70 in17.8 mm
10:50 PM 57.0°F13.9°C 53.8°F12.1°C 89% Calm Calm -- 26.41 in894.3 mb - 0.11 in2.8 mm 0.70 in17.8 mm
10:55 PM 57.0°F13.9°C 53.8°F12.1°C 89% Calm Calm -- 26.41 in894.3 mb - 0.00 in0.0 mm 0.70 in17.8 mm
11:00 PM 57.0°F13.9°C 54.1°F12.3°C 90% Calm Calm -- 26.41 in894.3 mb - 0.00 in0.0 mm 7.73 in196.3 mm
11:10 PM 57.0°F13.9°C 53.8°F12.1°C 89% Calm Calm -- 26.41 in894.3 mb - 0.00 in0.0 mm 7.73 in196.3 mm
11:15 PM 57.0°F13.9°C 53.8°F12.1°C 89% Calm Calm -- 26.41 in894.3 mb - 0.00 in0.0 mm 7.73 in196.3 mm
11:20 PM 57.0°F13.9°C 53.5°F11.9°C 88% Calm Calm -- 26.41 in894.3 mb - 0.00 in0.0 mm 7.73 in196.3 mm